sensor_id;sensor_type;location;lat;lon;timestamp;pressure;altitude;pressure_sealevel;temperature;humidity
71239;BME280;61342;51.442;7.370;2022-08-01T00:00:33;100032.09;;;21.24;85.00
71239;BME280;61342;51.442;7.370;2022-08-01T00:01:35;100022.69;;;21.16;84.74
71239;BME280;61342;51.442;7.370;2022-08-01T00:02:44;100021.41;;;21.10;85.13
71239;BME280;61342;51.442;7.370;2022-08-01T00:03:55;100013.88;;;21.07;85.46
71239;BME280;61342;51.442;7.370;2022-08-01T00:05:13;100027.56;;;21.04;85.38
71239;BME280;61342;51.442;7.370;2022-08-01T00:06:28;100041.59;;;21.15;85.70
71239;BME280;61342;51.442;7.370;2022-08-01T00:08:58;100041.16;;;21.19;86.11
71239;BME280;61342;51.442;7.370;2022-08-01T00:09:59;100042.84;;;21.22;85.85
71239;BME280;61342;51.442;7.370;2022-08-01T00:11:07;100032.72;;;21.23;86.04
71239;BME280;61342;51.442;7.370;2022-08-01T00:12:18;100034.44;;;21.35;86.29
71239;BME280;61342;51.442;7.370;2022-08-01T00:14:41;100047.09;;;21.47;86.23
71239;BME280;61342;51.442;7.370;2022-08-01T00:15:51;100056.84;;;21.49;85.98
71239;BME280;61342;51.442;7.370;2022-08-01T00:17:02;100036.94;;;21.48;85.58
71239;BME280;61342;51.442;7.370;2022-08-01T00:18:10;100052.53;;;21.50;85.80
71239;BME280;61342;51.442;7.370;2022-08-01T00:19:13;100044.34;;;21.49;85.39
71239;BME280;61342;51.442;7.370;2022-08-01T00:20:17;100042.03;;;21.47;85.70
71239;BME280;61342;51.442;7.370;2022-08-01T00:21:17;100044.03;;;21.45;85.70
71239;BME280;61342;51.442;7.370;2022-08-01T00:22:18;100018.56;;;21.29;85.33
71239;BME280;61342;51.442;7.370;2022-08-01T00:23:18;100042.16;;;21.40;85.74
71239;BME280;61342;51.442;7.370;2022-08-01T00:24:42;100036.44;;;21.33;85.28
71239;BME280;61342;51.442;7.370;2022-08-01T00:27:04;100018.53;;;21.19;85.16
71239;BME280;61342;51.442;7.370;2022-08-01T00:28:10;100027.16;;;21.17;85.68
71239;BME280;61342;51.442;7.370;2022-08-01T00:29:16;100015.84;;;21.04;85.65
71239;BME280;61342;51.442;7.370;2022-08-01T00:32:16;100027.25;;;21.10;86.09
71239;BME280;61342;51.442;7.370;2022-08-01T00:33:16;100033.09;;;21.10;86.10
71239;BME280;61342;51.442;7.370;2022-08-01T00:34:17;100025.56;;;21.07;86.00
71239;BME280;61342;51.442;7.370;2022-08-01T00:35:40;100039.94;;;21.22;86.18
71239;BME280;61342;51.442;7.370;2022-08-01T00:36:41;100010.66;;;21.12;86.72
71239;BME280;61342;51.442;7.370;2022-08-01T00:37:44;100022.81;;;21.18;86.76
71239;BME280;61342;51.442;7.370;2022-08-01T00:40:16;100023.47;;;21.26;86.50
71239;BME280;61342;51.442;7.370;2022-08-01T00:41:23;100021.47;;;21.29;86.11
71239;BME280;61342;51.442;7.370;2022-08-01T00:42:23;100028.88;;;21.30;86.03
71239;BME280;61342;51.442;7.370;2022-08-01T00:43:35;100029.06;;;21.32;85.70
71239;BME280;61342;51.442;7.370;2022-08-01T00:44:59;100032.31;;;21.36;85.63
71239;BME280;61342;51.442;7.370;2022-08-01T00:45:59;100039.53;;;21.35;85.65
71239;BME280;61342;51.442;7.370;2022-08-01T00:47:12;100009.75;;;21.19;85.48
71239;BME280;61342;51.442;7.370;2022-08-01T00:48:13;100014.53;;;21.15;85.74
71239;BME280;61342;51.442;7.370;2022-08-01T00:49:16;100031.59;;;21.18;85.68
71239;BME280;61342;51.442;7.370;2022-08-01T00:50:43;100030.84;;;21.18;85.40
71239;BME280;61342;51.442;7.370;2022-08-01T00:52:03;100026.50;;;21.09;85.55
71239;BME280;61342;51.442;7.370;2022-08-01T00:53:21;100028.78;;;21.01;86.11
71239;BME280;61342;51.442;7.370;2022-08-01T00:55:00;100038.19;;;21.09;86.51
71239;BME280;61342;51.442;7.370;2022-08-01T00:56:55;100043.25;;;21.09;86.51
71239;BME280;61342;51.442;7.370;2022-08-01T00:58:25;100017.09;;;21.01;86.35
71239;BME280;61342;51.442;7.370;2022-08-01T01:00:42;100027.41;;;21.12;86.98
71239;BME280;61342;51.442;7.370;2022-08-01T01:03:08;100018.19;;;21.15;86.49
71239;BME280;61342;51.442;7.370;2022-08-01T01:04:35;100023.16;;;21.22;86.83
71239;BME280;61342;51.442;7.370;2022-08-01T01:09:03;100019.00;;;21.16;86.39
71239;BME280;61342;51.442;7.370;2022-08-01T01:10:14;100022.34;;;21.12;85.60
71239;BME280;61342;51.442;7.370;2022-08-01T01:12:01;100033.47;;;21.23;85.78
71239;BME280;61342;51.442;7.370;2022-08-01T01:13:46;100015.06;;;21.04;85.73
71239;BME280;61342;51.442;7.370;2022-08-01T01:15:26;100035.41;;;21.11;85.80
71239;BME280;61342;51.442;7.370;2022-08-01T01:16:41;100024.72;;;20.97;86.19
71239;BME280;61342;51.442;7.370;2022-08-01T01:19:30;100032.75;;;20.96;85.96
71239;BME280;61342;51.442;7.370;2022-08-01T01:20:58;100043.22;;;20.99;86.52
71239;BME280;61342;51.442;7.370;2022-08-01T01:22:46;100029.34;;;21.00;86.66
71239;BME280;61342;51.442;7.370;2022-08-01T01:24:17;100033.72;;;21.08;87.38
71239;BME280;61342;51.442;7.370;2022-08-01T01:27:17;100034.09;;;21.22;87.00
71239;BME280;61342;51.442;7.370;2022-08-01T01:30:32;100029.47;;;21.19;86.78
71239;BME280;61342;51.442;7.370;2022-08-01T01:32:12;100028.84;;;21.20;86.62
71239;BME280;61342;51.442;7.370;2022-08-01T01:33:11;100022.34;;;21.12;86.24
71239;BME280;61342;51.442;7.370;2022-08-01T01:34:18;100032.81;;;21.15;86.59
71239;BME280;61342;51.442;7.370;2022-08-01T01:35:51;100040.38;;;21.18;85.96
71239;BME280;61342;51.442;7.370;2022-08-01T01:37:02;100014.91;;;21.02;86.55
71239;BME280;61342;51.442;7.370;2022-08-01T01:39:26;100024.13;;;20.98;86.83
71239;BME280;61342;51.442;7.370;2022-08-01T01:40:38;100014.09;;;20.92;86.79
71239;BME280;61342;51.442;7.370;2022-08-01T01:41:40;100012.06;;;20.85;86.25
71239;BME280;61342;51.442;7.370;2022-08-01T01:44:37;100027.44;;;20.85;86.81
71239;BME280;61342;51.442;7.370;2022-08-01T01:46:06;100052.75;;;21.00;87.44
71239;BME280;61342;51.442;7.370;2022-08-01T01:47:45;100036.44;;;20.97;87.82
71239;BME280;61342;51.442;7.370;2022-08-01T01:49:56;100041.28;;;21.11;87.21
71239;BME280;61342;51.442;7.370;2022-08-01T01:54:47;100033.47;;;21.23;87.14
71239;BME280;61342;51.442;7.370;2022-08-01T01:57:21;100040.88;;;21.24;87.07
71239;BME280;61342;51.442;7.370;2022-08-01T01:58:33;100048.59;;;21.29;86.35
71239;BME280;61342;51.442;7.370;2022-08-01T01:59:43;100031.28;;;21.14;86.56
71239;BME280;61342;51.442;7.370;2022-08-01T02:01:01;100051.03;;;21.23;86.85
71239;BME280;61342;51.442;7.370;2022-08-01T02:02:09;100027.69;;;21.06;86.39
71239;BME280;61342;51.442;7.370;2022-08-01T02:03:43;100028.59;;;20.99;86.95
71239;BME280;61342;51.442;7.370;2022-08-01T02:05:06;100036.13;;;21.02;86.84
71239;BME280;61342;51.442;7.370;2022-08-01T02:06:31;100050.94;;;21.04;87.20
71239;BME280;61342;51.442;7.370;2022-08-01T02:07:33;100047.69;;;21.00;87.11
71239;BME280;61342;51.442;7.370;2022-08-01T02:08:43;100032.09;;;20.88;87.10
71239;BME280;61342;51.442;7.370;2022-08-01T02:09:50;100049.06;;;20.99;87.17
71239;BME280;61342;51.442;7.370;2022-08-01T02:10:59;100038.25;;;20.92;87.52
71239;BME280;61342;51.442;7.370;2022-08-01T02:14:18;100039.06;;;21.02;87.39
71239;BME280;61342;51.442;7.370;2022-08-01T02:15:26;100033.88;;;21.10;87.50
71239;BME280;61342;51.442;7.370;2022-08-01T02:16:35;100043.47;;;21.20;87.42
71239;BME280;61342;51.442;7.370;2022-08-01T02:17:56;100035.31;;;21.19;86.94
71239;BME280;61342;51.442;7.370;2022-08-01T02:19:03;100047.78;;;21.19;86.93
71239;BME280;61342;51.442;7.370;2022-08-01T02:20:26;100022.19;;;21.10;86.91
71239;BME280;61342;51.442;7.370;2022-08-01T02:21:49;100043.94;;;21.26;86.49
71239;BME280;61342;51.442;7.370;2022-08-01T02:23:12;100048.09;;;21.23;86.63
71239;BME280;61342;51.442;7.370;2022-08-01T02:24:26;100042.97;;;21.14;86.48
71239;BME280;61342;51.442;7.370;2022-08-01T02:26:07;100037.91;;;21.15;87.01
71239;BME280;61342;51.442;7.370;2022-08-01T02:27:12;100040.34;;;21.09;86.53
71239;BME280;61342;51.442;7.370;2022-08-01T02:28:20;100035.19;;;21.00;86.45
71239;BME280;61342;51.442;7.370;2022-08-01T02:29:35;100030.44;;;20.95;87.08
71239;BME280;61342;51.442;7.370;2022-08-01T02:30:49;100024.38;;;20.84;87.14
71239;BME280;61342;51.442;7.370;2022-08-01T02:32:01;100021.25;;;20.82;86.94
71239;BME280;61342;51.442;7.370;2022-08-01T02:33:28;100024.03;;;20.80;87.13
71239;BME280;61342;51.442;7.370;2022-08-01T02:34:33;100041.91;;;20.84;87.03
71239;BME280;61342;51.442;7.370;2022-08-01T02:36:00;100038.53;;;20.87;87.36
71239;BME280;61342;51.442;7.370;2022-08-01T02:37:04;100025.13;;;20.84;87.83
71239;BME280;61342;51.442;7.370;2022-08-01T02:38:17;100042.00;;;21.02;87.99
71239;BME280;61342;51.442;7.370;2022-08-01T02:39:19;100031.53;;;20.99;87.71
71239;BME280;61342;51.442;7.370;2022-08-01T02:40:21;100037.09;;;21.05;88.00
71239;BME280;61342;51.442;7.370;2022-08-01T02:41:28;100035.84;;;21.08;87.64
71239;BME280;61342;51.442;7.370;2022-08-01T02:42:38;100024.63;;;21.04;87.57
71239;BME280;61342;51.442;7.370;2022-08-01T02:43:49;100024.63;;;21.04;87.42
71239;BME280;61342;51.442;7.370;2022-08-01T02:46:37;100052.84;;;21.19;87.36
71239;BME280;61342;51.442;7.370;2022-08-01T02:47:45;100022.00;;;20.99;86.91
71239;BME280;61342;51.442;7.370;2022-08-01T02:48:58;100029.81;;;20.96;86.86
71239;BME280;61342;51.442;7.370;2022-08-01T02:50:01;100024.59;;;20.95;86.81
71239;BME280;61342;51.442;7.370;2022-08-01T02:51:03;100048.00;;;21.04;87.12
71239;BME280;61342;51.442;7.370;2022-08-01T02:52:17;100028.09;;;20.93;86.56
71239;BME280;61342;51.442;7.370;2022-08-01T02:53:34;100041.19;;;20.92;87.48
71239;BME280;61342;51.442;7.370;2022-08-01T02:55:00;100032.94;;;20.82;87.08
71239;BME280;61342;51.442;7.370;2022-08-01T02:56:07;100043.44;;;20.85;87.07
71239;BME280;61342;51.442;7.370;2022-08-01T02:57:13;100032.63;;;20.78;86.86
71239;BME280;61342;51.442;7.370;2022-08-01T02:58:16;100027.84;;;20.73;87.38
71239;BME280;61342;51.442;7.370;2022-08-01T02:59:22;100029.00;;;20.70;87.54
71239;BME280;61342;51.442;7.370;2022-08-01T03:00:26;100027.47;;;20.69;87.74
71239;BME280;61342;51.442;7.370;2022-08-01T03:01:38;100019.47;;;20.69;87.93
71239;BME280;61342;51.442;7.370;2022-08-01T03:02:40;100020.94;;;20.78;88.12
71239;BME280;61342;51.442;7.370;2022-08-01T03:03:48;100034.41;;;20.90;87.64
71239;BME280;61342;51.442;7.370;2022-08-01T03:04:57;100027.50;;;20.95;88.22
71239;BME280;61342;51.442;7.370;2022-08-01T03:06:02;100030.28;;;21.02;87.66
71239;BME280;61342;51.442;7.370;2022-08-01T03:07:11;100015.22;;;20.96;87.75
71239;BME280;61342;51.442;7.370;2022-08-01T03:08:13;100030.19;;;21.10;87.99
71239;BME280;61342;51.442;7.370;2022-08-01T03:09:21;100022.03;;;21.08;87.41
71239;BME280;61342;51.442;7.370;2022-08-01T03:10:24;100028.19;;;21.12;87.03
71239;BME280;61342;51.442;7.370;2022-08-01T03:11:27;100010.00;;;21.04;87.45
71239;BME280;61342;51.442;7.370;2022-08-01T03:12:29;100026.31;;;21.07;87.44
71239;BME280;61342;51.442;7.370;2022-08-01T03:13:37;100028.03;;;21.10;87.13
71239;BME280;61342;51.442;7.370;2022-08-01T03:14:42;100016.16;;;20.99;86.77
71239;BME280;61342;51.442;7.370;2022-08-01T03:15:49;100029.09;;;21.05;87.02
71239;BME280;61342;51.442;7.370;2022-08-01T03:16:54;100029.97;;;20.98;86.54
71239;BME280;61342;51.442;7.370;2022-08-01T03:17:56;100026.91;;;20.96;86.58
71239;BME280;61342;51.442;7.370;2022-08-01T03:19:00;100038.91;;;21.00;87.07
71239;BME280;61342;51.442;7.370;2022-08-01T03:20:15;100030.53;;;20.87;87.36
71239;BME280;61342;51.442;7.370;2022-08-01T03:21:30;100021.44;;;20.84;87.11
71239;BME280;61342;51.442;7.370;2022-08-01T03:22:40;100030.81;;;20.82;87.43
71239;BME280;61342;51.442;7.370;2022-08-01T03:24:05;100050.38;;;20.89;87.26
71239;BME280;61342;51.442;7.370;2022-08-01T03:25:11;100019.22;;;20.75;87.63
71239;BME280;61342;51.442;7.370;2022-08-01T03:26:13;100032.53;;;20.85;87.80
71239;BME280;61342;51.442;7.370;2022-08-01T03:27:21;100036.72;;;20.91;88.20
71239;BME280;61342;51.442;7.370;2022-08-01T03:28:29;100021.91;;;20.89;88.29
71239;BME280;61342;51.442;7.370;2022-08-01T03:29:42;100020.88;;;20.94;87.64
71239;BME280;61342;51.442;7.370;2022-08-01T03:30:47;100036.94;;;21.03;87.99
71239;BME280;61342;51.442;7.370;2022-08-01T03:32:14;100036.31;;;21.04;87.90
71239;BME280;61342;51.442;7.370;2022-08-01T03:33:22;100044.53;;;21.15;87.70
71239;BME280;61342;51.442;7.370;2022-08-01T03:34:25;100045.75;;;21.12;87.66
71239;BME280;61342;51.442;7.370;2022-08-01T03:35:44;100036.19;;;21.12;87.32
71239;BME280;61342;51.442;7.370;2022-08-01T03:37:44;100048.22;;;21.16;87.31
71239;BME280;61342;51.442;7.370;2022-08-01T03:38:23;100049.72;;;21.07;87.54
71239;BME280;61342;51.442;7.370;2022-08-01T03:39:29;100037.22;;;20.97;86.90
71239;BME280;61342;51.442;7.370;2022-08-01T03:40:45;100050.75;;;21.02;87.05
71239;BME280;61342;51.442;7.370;2022-08-01T03:41:59;100049.94;;;20.92;87.02
71239;BME280;61342;51.442;7.370;2022-08-01T03:43:14;100036.81;;;20.84;87.33
71239;BME280;61342;51.442;7.370;2022-08-01T03:44:21;100041.56;;;20.80;87.19
71239;BME280;61342;51.442;7.370;2022-08-01T03:45:31;100055.25;;;20.77;87.37
71239;BME280;61342;51.442;7.370;2022-08-01T03:46:48;100068.34;;;20.85;87.58
71239;BME280;61342;51.442;7.370;2022-08-01T03:48:00;100056.84;;;20.71;87.56
71239;BME280;61342;51.442;7.370;2022-08-01T03:49:10;100061.50;;;20.74;87.62
71239;BME280;61342;51.442;7.370;2022-08-01T03:50:13;100073.53;;;20.78;87.48
71239;BME280;61342;51.442;7.370;2022-08-01T03:51:15;100071.56;;;20.80;88.43
71239;BME280;61342;51.442;7.370;2022-08-01T03:52:18;100052.94;;;20.76;88.14
71239;BME280;61342;51.442;7.370;2022-08-01T03:53:38;100050.34;;;20.80;88.09
71239;BME280;61342;51.442;7.370;2022-08-01T03:54:47;100050.81;;;20.85;88.54
71239;BME280;61342;51.442;7.370;2022-08-01T03:55:59;100075.56;;;21.01;88.13
71239;BME280;61342;51.442;7.370;2022-08-01T03:57:05;100064.28;;;20.98;87.96
71239;BME280;61342;51.442;7.370;2022-08-01T03:58:07;100052.75;;;21.00;87.82
71239;BME280;61342;51.442;7.370;2022-08-01T03:59:09;100064.66;;;21.11;88.29
71239;BME280;61342;51.442;7.370;2022-08-01T04:00:10;100058.66;;;21.09;87.56
71239;BME280;61342;51.442;7.370;2022-08-01T04:01:11;100054.34;;;21.10;87.78
71239;BME280;61342;51.442;7.370;2022-08-01T04:02:12;100049.91;;;21.09;87.57
71239;BME280;61342;51.442;7.370;2022-08-01T04:03:15;100065.00;;;21.15;87.54
71239;BME280;61342;51.442;7.370;2022-08-01T04:04:16;100054.81;;;21.07;87.76
71239;BME280;61342;51.442;7.370;2022-08-01T04:05:26;100059.84;;;21.06;87.25
71239;BME280;61342;51.442;7.370;2022-08-01T04:06:31;100055.22;;;21.03;87.28
71239;BME280;61342;51.442;7.370;2022-08-01T04:07:34;100057.22;;;21.01;87.66
71239;BME280;61342;51.442;7.370;2022-08-01T04:08:46;100064.28;;;20.98;87.37
71239;BME280;61342;51.442;7.370;2022-08-01T04:10:30;100070.91;;;20.98;87.24
71239;BME280;61342;51.442;7.370;2022-08-01T04:11:58;100056.19;;;20.80;87.39
71239;BME280;61342;51.442;7.370;2022-08-01T04:13:06;100055.25;;;20.77;87.44
71239;BME280;61342;51.442;7.370;2022-08-01T04:14:12;100066.66;;;20.83;87.61
71239;BME280;61342;51.442;7.370;2022-08-01T04:15:13;100066.50;;;20.81;87.88
71239;BME280;61342;51.442;7.370;2022-08-01T04:16:17;100050.50;;;20.82;88.03
71239;BME280;61342;51.442;7.370;2022-08-01T04:17:17;100074.88;;;20.93;88.14
71239;BME280;61342;51.442;7.370;2022-08-01T04:18:20;100074.72;;;20.91;87.86
71239;BME280;61342;51.442;7.370;2022-08-01T04:19:40;100069.19;;;20.95;88.12
71239;BME280;61342;51.442;7.370;2022-08-01T04:20:46;100080.50;;;21.08;88.09
71239;BME280;61342;51.442;7.370;2022-08-01T04:21:54;100055.09;;;21.01;87.92
71239;BME280;61342;51.442;7.370;2022-08-01T04:23:12;100068.81;;;21.08;87.86
71239;BME280;61342;51.442;7.370;2022-08-01T04:24:19;100068.53;;;21.14;87.80
71239;BME280;61342;51.442;7.370;2022-08-01T04:25:43;100057.44;;;21.12;87.70
71239;BME280;61342;51.442;7.370;2022-08-01T04:28:13;100064.66;;;21.11;87.04
71239;BME280;61342;51.442;7.370;2022-08-01T04:34:20;100071.03;;;20.91;87.16
71239;BME280;61342;51.442;7.370;2022-08-01T04:35:36;100083.81;;;20.95;87.16
71239;BME280;61342;51.442;7.370;2022-08-01T04:37:03;100063.56;;;20.81;87.35
71239;BME280;61342;51.442;7.370;2022-08-01T04:38:12;100067.69;;;20.78;87.49
71239;BME280;61342;51.442;7.370;2022-08-01T04:39:30;100076.63;;;20.80;87.75
71239;BME280;61342;51.442;7.370;2022-08-01T04:41:03;100070.47;;;20.76;87.69
71239;BME280;61342;51.442;7.370;2022-08-01T04:42:43;100069.56;;;20.83;87.93
71239;BME280;61342;51.442;7.370;2022-08-01T04:44:09;100091.97;;;20.97;87.73
71239;BME280;61342;51.442;7.370;2022-08-01T04:45:13;100076.75;;;20.98;87.71
71239;BME280;61342;51.442;7.370;2022-08-01T04:46:17;100093.75;;;21.09;88.10
71239;BME280;61342;51.442;7.370;2022-08-01T04:47:28;100075.09;;;21.05;88.08
71239;BME280;61342;51.442;7.370;2022-08-01T04:48:43;100082.06;;;21.09;87.52
71239;BME280;61342;51.442;7.370;2022-08-01T04:49:47;100074.19;;;21.12;87.64
71239;BME280;61342;51.442;7.370;2022-08-01T04:50:54;100089.81;;;21.24;87.31
71239;BME280;61342;51.442;7.370;2022-08-01T04:52:06;100094.88;;;21.23;87.37
71239;BME280;61342;51.442;7.370;2022-08-01T04:53:13;100085.47;;;21.15;87.00
71239;BME280;61342;51.442;7.370;2022-08-01T04:54:34;100089.59;;;21.12;86.82
71239;BME280;61342;51.442;7.370;2022-08-01T04:55:43;100071.22;;;21.02;87.02
71239;BME280;61342;51.442;7.370;2022-08-01T04:57:10;100107.31;;;21.14;86.82
71239;BME280;61342;51.442;7.370;2022-08-01T04:58:11;100106.97;;;21.10;86.58
71239;BME280;61342;51.442;7.370;2022-08-01T04:59:11;100099.28;;;21.05;86.92
71239;BME280;61342;51.442;7.370;2022-08-01T05:00:36;100098.31;;;21.03;86.76
71239;BME280;61342;51.442;7.370;2022-08-01T05:01:40;100082.97;;;20.85;87.33
71239;BME280;61342;51.442;7.370;2022-08-01T05:03:04;100089.75;;;20.88;87.24
71239;BME280;61342;51.442;7.370;2022-08-01T05:04:10;100083.25;;;20.80;87.47
71239;BME280;61342;51.442;7.370;2022-08-01T05:05:10;100100.59;;;20.95;87.65
71239;BME280;61342;51.442;7.370;2022-08-01T05:06:33;100087.44;;;20.86;87.77
71239;BME280;61342;51.442;7.370;2022-08-01T05:07:59;100093.19;;;20.94;87.84
71239;BME280;61342;51.442;7.370;2022-08-01T05:10:58;100093.91;;;21.11;87.94
71239;BME280;61342;51.442;7.370;2022-08-01T05:12:04;100094.41;;;21.17;87.90
71239;BME280;61342;51.442;7.370;2022-08-01T05:13:14;100093.19;;;21.20;87.50
71239;BME280;61342;51.442;7.370;2022-08-01T05:14:17;100088.59;;;21.27;87.61
71239;BME280;61342;51.442;7.370;2022-08-01T05:15:20;100097.25;;;21.34;87.59
71239;BME280;61342;51.442;7.370;2022-08-01T05:16:45;100100.94;;;21.35;87.29
71239;BME280;61342;51.442;7.370;2022-08-01T05:17:45;100095.22;;;21.27;87.17
71239;BME280;61342;51.442;7.370;2022-08-01T05:19:00;100095.81;;;21.26;86.91
71239;BME280;61342;51.442;7.370;2022-08-01T05:20:15;100112.16;;;21.29;86.84
71239;BME280;61342;51.442;7.370;2022-08-01T05:23:05;100094.06;;;21.13;86.93
71239;BME280;61342;51.442;7.370;2022-08-01T05:26:10;100094.28;;;20.98;87.36
71239;BME280;61342;51.442;7.370;2022-08-01T05:27:25;100120.50;;;21.06;87.20
71239;BME280;61342;51.442;7.370;2022-08-01T05:28:41;100115.88;;;21.03;87.42
71239;BME280;61342;51.442;7.370;2022-08-01T05:30:27;100115.34;;;20.97;87.43
71239;BME280;61342;51.442;7.370;2022-08-01T05:32:00;100118.78;;;21.03;88.01
71239;BME280;61342;51.442;7.370;2022-08-01T05:33:26;100119.13;;;21.07;87.72
71239;BME280;61342;51.442;7.370;2022-08-01T05:36:29;100117.81;;;21.17;88.04
71239;BME280;61342;51.442;7.370;2022-08-01T05:37:38;100132.47;;;21.27;87.76
71239;BME280;61342;51.442;7.370;2022-08-01T05:38:44;100109.63;;;21.16;87.56
71239;BME280;61342;51.442;7.370;2022-08-01T05:39:50;100133.75;;;21.33;87.09
71239;BME280;61342;51.442;7.370;2022-08-01T05:40:56;100127.56;;;21.29;87.16
71239;BME280;61342;51.442;7.370;2022-08-01T05:41:57;100124.63;;;21.29;86.99
71239;BME280;61342;51.442;7.370;2022-08-01T05:42:57;100115.03;;;21.19;86.46
71239;BME280;61342;51.442;7.370;2022-08-01T05:43:58;100113.81;;;21.22;86.70
71239;BME280;61342;51.442;7.370;2022-08-01T05:44:58;100105.16;;;21.15;86.71
71239;BME280;61342;51.442;7.370;2022-08-01T05:45:59;100131.19;;;21.20;87.13
71239;BME280;61342;51.442;7.370;2022-08-01T05:46:59;100126.56;;;21.17;86.82
71239;BME280;61342;51.442;7.370;2022-08-01T05:47:59;100120.22;;;21.11;86.92
71239;BME280;61342;51.442;7.370;2022-08-01T05:49:01;100131.47;;;21.15;86.80
71239;BME280;61342;51.442;7.370;2022-08-01T05:50:02;100121.88;;;21.05;86.79
71239;BME280;61342;51.442;7.370;2022-08-01T05:51:03;100124.19;;;21.06;86.99
71239;BME280;61342;51.442;7.370;2022-08-01T05:52:03;100129.88;;;21.04;87.36
71239;BME280;61342;51.442;7.370;2022-08-01T05:53:05;100131.25;;;21.03;87.45
71239;BME280;61342;51.442;7.370;2022-08-01T05:54:05;100125.81;;;21.00;87.11
71239;BME280;61342;51.442;7.370;2022-08-01T05:55:06;100136.94;;;21.01;87.78
71239;BME280;61342;51.442;7.370;2022-08-01T05:56:07;100138.47;;;21.02;87.67
71239;BME280;61342;51.442;7.370;2022-08-01T05:57:07;100134.94;;;21.04;87.84
71239;BME280;61342;51.442;7.370;2022-08-01T05:58:07;100139.75;;;21.09;88.00
71239;BME280;61342;51.442;7.370;2022-08-01T05:59:08;100129.16;;;21.13;87.90
71239;BME280;61342;51.442;7.370;2022-08-01T06:00:09;100133.94;;;21.18;87.87
71239;BME280;61342;51.442;7.370;2022-08-01T06:01:09;100143.56;;;21.28;87.66
71239;BME280;61342;51.442;7.370;2022-08-01T06:02:10;100137.28;;;21.32;87.64
71239;BME280;61342;51.442;7.370;2022-08-01T06:03:13;100131.16;;;21.37;87.42
71239;BME280;61342;51.442;7.370;2022-08-01T06:04:14;100134.41;;;21.41;87.69
71239;BME280;61342;51.442;7.370;2022-08-01T06:05:15;100139.78;;;21.44;87.02
71239;BME280;61342;51.442;7.370;2022-08-01T06:06:16;100141.50;;;21.47;86.93
71239;BME280;61342;51.442;7.370;2022-08-01T06:07:16;100131.94;;;21.47;87.26
71239;BME280;61342;51.442;7.370;2022-08-01T06:08:17;100131.94;;;21.47;86.62
71239;BME280;61342;51.442;7.370;2022-08-01T06:09:17;100133.34;;;21.46;87.38
71239;BME280;61342;51.442;7.370;2022-08-01T06:10:18;100144.44;;;21.47;86.95
71239;BME280;61342;51.442;7.370;2022-08-01T06:11:18;100145.47;;;21.42;86.80
71239;BME280;61342;51.442;7.370;2022-08-01T06:12:19;100144.72;;;21.42;86.33
71239;BME280;61342;51.442;7.370;2022-08-01T06:13:19;100142.22;;;21.39;86.60
71239;BME280;61342;51.442;7.370;2022-08-01T06:14:19;100150.06;;;21.36;86.94
71239;BME280;61342;51.442;7.370;2022-08-01T06:15:20;100143.72;;;21.30;86.20
71239;BME280;61342;51.442;7.370;2022-08-01T06:16:20;100145.72;;;21.28;86.89
71239;BME280;61342;51.442;7.370;2022-08-01T06:17:21;100138.13;;;21.25;86.26
71239;BME280;61342;51.442;7.370;2022-08-01T06:18:21;100144.78;;;21.25;86.78
71239;BME280;61342;51.442;7.370;2022-08-01T06:19:21;100149.06;;;21.24;87.08
71239;BME280;61342;51.442;7.370;2022-08-01T06:20:22;100144.78;;;21.25;86.80
71239;BME280;61342;51.442;7.370;2022-08-01T06:21:22;100138.94;;;21.25;87.27
71239;BME280;61342;51.442;7.370;2022-08-01T06:22:23;100142.19;;;21.29;86.97
71239;BME280;61342;51.442;7.370;2022-08-01T06:23:23;100138.03;;;21.32;87.02
71239;BME280;61342;51.442;7.370;2022-08-01T06:24:23;100146.38;;;21.36;87.56
71239;BME280;61342;51.442;7.370;2022-08-01T06:25:24;100140.84;;;21.40;87.63
71239;BME280;61342;51.442;7.370;2022-08-01T06:26:24;100143.31;;;21.43;87.19
71239;BME280;61342;51.442;7.370;2022-08-01T06:27:25;100133.72;;;21.50;86.54
71239;BME280;61342;51.442;7.370;2022-08-01T06:28:26;100135.41;;;21.53;86.66
71239;BME280;61342;51.442;7.370;2022-08-01T06:29:26;100137.72;;;21.54;86.89
71239;BME280;61342;51.442;7.370;2022-08-01T06:30:26;100140.78;;;21.56;86.71
71239;BME280;61342;51.442;7.370;2022-08-01T06:31:27;100140.66;;;21.54;86.59
71239;BME280;61342;51.442;7.370;2022-08-01T06:32:27;100146.22;;;21.60;86.08
71239;BME280;61342;51.442;7.370;2022-08-01T06:33:31;100143.72;;;21.56;86.62
71239;BME280;61342;51.442;7.370;2022-08-01T06:34:35;100139.28;;;21.55;86.14
71239;BME280;61342;51.442;7.370;2022-08-01T06:35:35;100137.09;;;21.56;86.39
71239;BME280;61342;51.442;7.370;2022-08-01T06:36:35;100147.44;;;21.57;86.38
71239;BME280;61342;51.442;7.370;2022-08-01T06:37:36;100141.25;;;21.53;85.73
71239;BME280;61342;51.442;7.370;2022-08-01T06:38:37;100138.34;;;21.53;85.73
71239;BME280;61342;51.442;7.370;2022-08-01T06:39:37;100148.34;;;21.50;85.89
71239;BME280;61342;51.442;7.370;2022-08-01T06:40:37;100144.78;;;21.51;85.96
71239;BME280;61342;51.442;7.370;2022-08-01T06:41:38;100139.56;;;21.50;86.08
71239;BME280;61342;51.442;7.370;2022-08-01T06:42:41;100145.41;;;21.50;86.18
71239;BME280;61342;51.442;7.370;2022-08-01T06:43:42;100141.50;;;21.47;86.77
71239;BME280;61342;51.442;7.370;2022-08-01T06:44:42;100143.25;;;21.50;86.02
71239;BME280;61342;51.442;7.370;2022-08-01T06:45:42;100141.06;;;21.51;86.95
71239;BME280;61342;51.442;7.370;2022-08-01T06:46:43;100153.56;;;21.51;86.22
71239;BME280;61342;51.442;7.370;2022-08-01T06:47:45;100142.97;;;21.56;86.52
71239;BME280;61342;51.442;7.370;2022-08-01T06:48:45;100143.28;;;21.60;87.07
71239;BME280;61342;51.442;7.370;2022-08-01T06:49:46;100152.56;;;21.66;86.45